Time;durP1;ratioP1;P1;durP2;ratioP2;P2;SDS_P1;SDS_P2;PMS_P1;PMS_P2;Temp;Humidity;BMP_temperature;BMP_pressure;BME280_temperature;BME280_humidity;BME280_pressure;Samples;Min_cycle;Max_cycle;Signal;HPM_P1;HPM_P2
2022/08/23 00:00:06;;;;;;;3.40;2.90;;;;;;;17.43;100.00;96115.53;5083227;28;20201;-76
2022/08/23 00:02:33;;;;;;;4.10;3.13;;;;;;;17.40;100.00;96122.34;5074057;28;20206;-76
2022/08/23 00:05:02;;;;;;;4.67;2.90;;;;;;;17.48;100.00;96122.84;5079409;28;20201;-76
2022/08/23 00:07:29;;;;;;;3.63;2.77;;;;;;;17.48;100.00;96128.31;5081002;28;20224;-75
2022/08/23 00:09:57;;;;;;;3.57;3.27;;;;;;;17.51;100.00;96125.03;5081652;28;20216;-75
2022/08/23 00:12:23;;;;;;;4.67;3.40;;;;;;;17.59;100.00;96130.72;5087374;28;20219;-75
2022/08/23 00:14:56;;;;;;;4.20;2.83;;;;;;;17.61;100.00;96130.44;5085184;28;20308;-75
2022/08/23 00:17:23;;;;;;;4.20;3.10;;;;;;;17.62;100.00;96123.91;5098299;28;20263;-75
2022/08/23 00:19:50;;;;;;;3.20;2.90;;;;;;;17.56;100.00;96125.00;5084470;28;20204;-75
2022/08/23 00:22:18;;;;;;;5.07;2.93;;;;;;;17.58;100.00;96128.28;5080840;28;20201;-75
2022/08/23 00:24:45;;;;;;;5.47;3.07;;;;;;;17.54;100.00;96122.56;5078333;28;20200;-75
2022/08/23 00:27:14;;;;;;;4.23;2.67;;;;;;;17.43;100.00;96125.63;5086494;28;20228;-75
2022/08/23 00:29:47;;;;;;;4.23;2.80;;;;;;;17.40;100.00;96127.81;5073517;28;20229;-75
2022/08/23 00:32:16;;;;;;;7.00;3.13;;;;;;;17.25;100.00;96130.59;5077951;28;20210;-75
2022/08/23 00:34:43;;;;;;;4.97;2.90;;;;;;;17.22;100.00;96125.69;5076173;28;20201;-76
2022/08/23 00:37:12;;;;;;;3.60;2.90;;;;;;;17.18;100.00;96121.84;5080875;28;20205;-75
2022/08/23 00:39:41;;;;;;;3.67;2.73;;;;;;;17.11;100.00;96115.88;5079788;28;20284;-76
2022/08/23 00:47:42;;;;;;;2.90;2.67;;;;;;;17.19;100.00;96120.75;5082804;28;20224;-75
2022/08/23 00:50:22;;;;;;;4.70;3.37;;;;;;;17.18;100.00;96118.34;5078827;28;20222;-76
2022/08/23 00:52:57;;;;;;;5.03;3.30;;;;;;;17.22;100.00;96122.94;5080867;28;20207;-75
2022/08/23 00:55:27;;;;;;;3.93;2.77;;;;;;;17.25;100.00;96116.13;5083012;28;20291;-75
2022/08/23 00:57:54;;;;;;;4.93;3.10;;;;;;;17.16;100.00;96123.25;5083887;28;20224;-75
2022/08/23 01:00:22;;;;;;;4.27;3.07;;;;;;;17.06;100.00;96124.09;5079723;28;20212;-76
2022/08/23 01:02:51;;;;;;;4.43;2.93;;;;;;;17.12;100.00;96125.69;5082531;28;20196;-75
2022/08/23 01:05:18;;;;;;;3.10;2.80;;;;;;;17.16;100.00;96126.78;5076183;28;20201;-76
2022/08/23 01:07:49;;;;;;;3.43;2.80;;;;;;;17.12;100.00;96127.59;5078785;28;20254;-75
2022/08/23 01:10:25;;;;;;;5.00;2.93;;;;;;;17.08;100.00;96132.81;5080809;28;20268;-75
2022/08/23 01:12:58;;;;;;;3.63;3.13;;;;;;;17.06;100.00;96134.19;5082203;28;20277;-76
2022/08/23 01:15:30;;;;;;;4.57;2.77;;;;;;;17.07;100.00;96131.19;5073577;28;20247;-75
2022/08/23 01:18:02;;;;;;;4.13;2.90;;;;;;;17.02;100.00;96131.16;5087461;28;20223;-75
2022/08/23 01:20:36;;;;;;;5.03;2.80;;;;;;;17.00;100.00;96127.94;5092276;28;20250;-75
2022/08/23 01:23:08;;;;;;;3.13;2.83;;;;;;;16.96;100.00;96143.19;5082832;28;20236;-76
2022/08/23 01:25:38;;;;;;;3.40;2.80;;;;;;;16.94;100.00;96148.09;5085110;28;20200;-76
2022/08/23 01:28:05;;;;;;;3.60;3.20;;;;;;;16.89;100.00;96148.13;5103089;28;20232;-75
2022/08/23 01:30:34;;;;;;;3.93;3.17;;;;;;;16.80;100.00;96141.59;5084137;28;20197;-75
2022/08/23 01:33:04;;;;;;;2.97;2.63;;;;;;;16.80;100.00;96145.13;5073606;28;20538;-75
2022/08/23 01:35:40;;;;;;;4.00;2.77;;;;;;;16.75;100.00;96136.16;5085813;28;20197;-75
2022/08/23 01:38:09;;;;;;;11.07;3.43;;;;;;;16.77;100.00;96145.66;5077361;28;20241;-75
2022/08/23 01:40:39;;;;;;;3.57;3.27;;;;;;;16.69;100.00;96151.69;5089986;28;20231;-76
2022/08/23 01:43:07;;;;;;;5.10;3.00;;;;;;;16.59;100.00;96149.72;5093874;28;20217;-75
2022/08/23 01:45:36;;;;;;;5.10;3.07;;;;;;;16.60;100.00;96154.09;5092720;28;20284;-75
2022/08/23 01:48:05;;;;;;;3.70;3.03;;;;;;;16.60;100.00;96145.91;5082868;28;20223;-75
2022/08/23 01:50:32;;;;;;;3.60;3.10;;;;;;;16.61;100.00;96142.13;5081289;28;20277;-75
2022/08/23 01:53:00;;;;;;;6.03;3.50;;;;;;;16.60;100.00;96143.19;5087911;28;20213;-75
2022/08/23 01:55:28;;;;;;;4.53;3.17;;;;;;;16.63;100.00;96150.88;5094671;28;20220;-75
2022/08/23 01:58:00;;;;;;;6.77;3.80;;;;;;;16.63;100.00;96142.69;5087498;28;20220;-75
2022/08/23 02:00:32;;;;;;;3.60;2.93;;;;;;;16.72;100.00;96150.31;5080921;28;20292;-75
2022/08/23 02:02:59;;;;;;;3.50;3.20;;;;;;;16.73;100.00;96149.22;5083752;28;20212;-76
2022/08/23 02:05:27;;;;;;;3.63;3.00;;;;;;;16.72;100.00;96148.41;5080060;28;20201;-75
2022/08/23 02:07:55;;;;;;;3.80;3.30;;;;;;;16.72;100.00;96153.88;5081245;28;20223;-75
2022/08/23 02:10:22;;;;;;;4.13;3.60;;;;;;;16.71;100.00;96151.41;5075357;28;20228;-75
2022/08/23 02:12:50;;;;;;;3.63;2.80;;;;;;;16.74;100.00;96145.41;5083172;28;20231;-75
2022/08/23 02:15:19;;;;;;;3.33;2.80;;;;;;;16.72;100.00;96147.59;5082358;28;20243;-75
2022/08/23 02:17:47;;;;;;;3.27;2.97;;;;;;;16.73;100.00;96154.69;5095267;28;20201;-76
2022/08/23 02:20:14;;;;;;;3.20;2.77;;;;;;;16.80;100.00;96155.22;5079435;28;20209;-76
2022/08/23 02:22:42;;;;;;;3.13;2.63;;;;;;;16.77;100.00;96150.31;5080990;28;20204;-75
2022/08/23 02:25:10;;;;;;;4.70;3.03;;;;;;;16.76;100.00;96159.59;5077288;28;20251;-75
2022/08/23 02:27:37;;;;;;;4.67;2.97;;;;;;;16.72;100.00;96153.88;5077251;28;20198;-75
2022/08/23 02:30:04;;;;;;;4.60;3.00;;;;;;;16.76;100.00;96162.31;5073882;28;20225;-75
2022/08/23 02:32:33;;;;;;;3.70;3.27;;;;;;;16.72;100.00;96170.22;5080968;28;20268;-75
2022/08/23 02:35:00;;;;;;;3.03;2.73;;;;;;;16.70;100.00;96166.13;5078019;28;20205;-75
2022/08/23 02:37:27;;;;;;;5.77;2.80;;;;;;;16.68;100.00;96165.56;5075265;28;20240;-75
2022/08/23 02:39:54;;;;;;;4.13;3.17;;;;;;;16.70;100.00;96166.13;5087280;28;20240;-75
2022/08/23 02:42:21;;;;;;;4.93;2.93;;;;;;;16.71;100.00;96165.03;5088732;28;20215;-75
2022/08/23 02:44:49;;;;;;;3.37;2.93;;;;;;;16.63;100.00;96160.94;5073470;28;20193;-75
2022/08/23 02:47:17;;;;;;;4.37;3.07;;;;;;;16.58;100.00;96161.75;5073896;28;20216;-75
2022/08/23 02:49:53;;;;;;;3.13;2.83;;;;;;;16.53;100.00;96169.91;5083285;28;20201;-75
2022/08/23 02:52:20;;;;;;;3.93;3.07;;;;;;;16.52;100.00;96171.00;5082950;28;20258;-76
2022/08/23 02:54:47;;;;;;;5.80;3.00;;;;;;;16.56;100.00;96166.66;5082118;28;20193;-75
2022/08/23 02:57:15;;;;;;;4.83;4.00;;;;;;;16.53;100.00;96171.81;5083205;28;20228;-75
2022/08/23 02:59:42;;;;;;;5.03;4.10;;;;;;;16.49;100.00;96168.00;5075104;28;20194;-75
2022/08/23 03:02:09;;;;;;;4.13;3.23;;;;;;;16.40;100.00;96166.91;5082196;28;20247;-75
2022/08/23 03:04:40;;;;;;;4.53;3.00;;;;;;;16.40;100.00;96170.47;5079260;28;20207;-75
2022/08/23 03:07:09;;;;;;;5.50;3.17;;;;;;;16.42;100.00;96176.44;5077171;28;20197;-75
2022/08/23 03:09:38;;;;;;;3.17;2.73;;;;;;;16.54;100.00;96173.47;5073423;28;20217;-75
2022/08/23 03:12:05;;;;;;;3.87;2.93;;;;;;;16.50;100.00;96167.72;5081946;28;20208;-75
2022/08/23 03:14:36;;;;;;;2.90;2.60;;;;;;;16.42;100.00;96176.44;5081113;28;20197;-76
2022/08/23 03:17:04;;;;;;;7.40;3.40;;;;;;;16.42;100.00;96170.97;5089326;28;20208;-75
2022/08/23 03:19:31;;;;;;;4.27;3.20;;;;;;;16.38;100.00;96166.38;5093834;28;20209;-76
2022/08/23 03:21:58;;;;;;;4.50;3.00;;;;;;;16.39;100.00;96182.44;5080217;28;20197;-75
2022/08/23 03:24:26;;;;;;;3.73;2.80;;;;;;;16.38;100.00;96183.53;5072636;28;20205;-75
2022/08/23 03:26:54;;;;;;;3.37;2.87;;;;;;;16.35;100.00;96175.88;5079569;28;20209;-75
2022/08/23 03:29:21;;;;;;;3.70;3.17;;;;;;;16.24;100.00;96180.53;5090310;28;20227;-74
2022/08/23 03:32:01;;;;;;;3.23;2.80;;;;;;;16.24;100.00;96180.53;5073067;28;20223;-75
2022/08/23 03:34:32;;;;;;;3.60;2.83;;;;;;;16.20;100.00;96178.59;5081825;28;20220;-74
2022/08/23 03:36:59;;;;;;;3.70;2.90;;;;;;;16.21;100.00;96172.06;5082219;28;20208;-75
2022/08/23 03:39:27;;;;;;;3.10;2.70;;;;;;;16.24;100.00;96176.97;5080958;28;20207;-74
2022/08/23 03:41:57;;;;;;;3.10;2.37;;;;;;;16.30;100.00;96180.53;5087635;28;20192;-74
2022/08/23 03:44:26;;;;;;;4.40;2.70;;;;;;;16.29;100.00;96171.53;5082958;28;20209;-75
2022/08/23 03:46:53;;;;;;;4.60;3.23;;;;;;;16.35;100.00;96177.78;5079255;28;20232;-75
2022/08/23 03:49:20;;;;;;;3.40;2.90;;;;;;;16.37;100.00;96179.16;5082647;28;20228;-75
2022/08/23 03:51:52;;;;;;;3.40;2.73;;;;;;;16.35;100.00;96175.88;5079969;28;20206;-74
2022/08/23 03:54:19;;;;;;;2.90;2.70;;;;;;;16.33;100.00;96180.81;5080528;28;20297;-75
2022/08/23 03:56:54;;;;;;;3.20;2.90;;;;;;;16.39;100.00;96185.16;5087236;28;20288;-75
2022/08/23 03:59:22;;;;;;;3.40;2.77;;;;;;;16.26;100.00;96183.78;5081275;28;20215;-75
2022/08/23 04:01:49;;;;;;;3.73;3.20;;;;;;;16.16;100.00;96178.31;5081060;28;20200;-75
2022/08/23 04:04:17;;;;;;;3.63;2.80;;;;;;;16.20;100.00;96184.88;5087526;28;20213;-74
2022/08/23 04:07:04;;;;;;;4.57;3.00;;;;;;;16.26;100.00;96188.41;5073260;28;20201;-75
2022/08/23 04:09:31;;;;;;;4.20;3.20;;;;;;;16.30;100.00;96188.69;5087255;28;20228;-75
2022/08/23 04:12:00;;;;;;;4.00;3.00;;;;;;;16.27;100.00;96190.88;5084671;28;20282;-75
2022/08/23 04:14:27;;;;;;;4.23;3.40;;;;;;;16.22;100.00;96198.22;5076443;28;20205;-75
2022/08/23 04:16:54;;;;;;;3.60;3.00;;;;;;;16.21;100.00;96191.13;5093231;28;20232;-75
2022/08/23 04:19:21;;;;;;;6.13;3.00;;;;;;;16.21;100.00;96199.31;5079890;28;20209;-74
2022/08/23 04:21:59;;;;;;;4.13;3.03;;;;;;;16.20;100.00;96197.66;5083192;28;20216;-75
2022/08/23 04:24:32;;;;;;;4.43;3.13;;;;;;;16.28;100.00;96197.13;5084524;28;20194;-74
2022/08/23 04:27:00;;;;;;;6.07;2.70;;;;;;;16.28;100.00;96197.13;5082524;28;20200;-75
2022/08/23 04:29:27;;;;;;;3.50;3.20;;;;;;;16.19;100.00;96201.47;5079400;28;20278;-75
2022/08/23 04:31:54;;;;;;;4.27;3.17;;;;;;;16.12;100.00;96198.19;5079321;28;20205;-75
2022/08/23 04:34:21;;;;;;;4.53;3.10;;;;;;;16.14;100.00;96198.75;5094224;28;20215;-75
2022/08/23 04:36:48;;;;;;;5.43;2.80;;;;;;;16.15;100.00;96198.50;5080946;28;20196;-75
2022/08/23 04:39:16;;;;;;;3.80;2.70;;;;;;;16.18;100.00;96197.09;5083593;28;20196;-75
2022/08/23 04:44:31;;;;;;;5.47;3.50;;;;;;;16.19;100.00;96204.19;5074468;28;20239;-75
2022/08/23 04:47:01;;;;;;;4.43;3.23;;;;;;;16.17;100.00;96207.19;5075246;28;20255;-75
2022/08/23 04:49:29;;;;;;;4.63;3.07;;;;;;;16.21;100.00;96215.66;5082501;28;20225;-75
2022/08/23 04:51:57;;;;;;;3.43;3.00;;;;;;;16.25;100.00;96208.56;5074788;28;20192;-76
2022/08/23 04:54:24;;;;;;;3.47;3.03;;;;;;;16.27;100.00;96211.84;5076081;28;20205;-76
2022/08/23 04:57:15;;;;;;;3.30;2.97;;;;;;;16.15;100.00;96214.00;5077510;28;20260;-75
2022/08/23 04:59:46;;;;;;;4.27;2.97;;;;;;;16.05;100.00;96213.97;5081483;28;20655;-76
2022/08/23 05:02:13;;;;;;;3.80;3.00;;;;;;;16.02;100.00;96214.50;5076348;28;20228;-75
2022/08/23 05:04:40;;;;;;;4.37;3.03;;;;;;;16.00;100.00;96205.78;5079397;28;20209;-76
2022/08/23 05:07:07;;;;;;;4.10;3.47;;;;;;;16.01;100.00;96213.69;5083033;28;20200;-75
2022/08/23 05:09:34;;;;;;;3.20;2.80;;;;;;;16.02;100.00;96209.06;5079774;28;20221;-75
2022/08/23 05:12:01;;;;;;;4.13;3.10;;;;;;;16.01;100.00;96221.03;5087521;28;20205;-75
2022/08/23 05:14:30;;;;;;;4.73;2.90;;;;;;;16.02;100.00;96203.59;5080860;28;20200;-75
2022/08/23 05:16:58;;;;;;;4.30;3.00;;;;;;;16.02;100.00;96209.88;5076839;28;20236;-75
2022/08/23 05:19:26;;;;;;;4.67;2.90;;;;;;;15.97;100.00;96204.41;5074639;28;20208;-75
2022/08/23 05:21:53;;;;;;;4.70;3.20;;;;;;;15.98;100.00;96211.50;5076031;28;20228;-75
2022/08/23 05:24:22;;;;;;;4.20;2.93;;;;;;;15.99;100.00;96215.84;5073696;28;20310;-75
2022/08/23 05:26:49;;;;;;;4.57;3.23;;;;;;;15.96;100.00;96215.56;5082707;28;20199;-75
2022/08/23 05:29:16;;;;;;;4.73;3.30;;;;;;;15.96;100.00;96215.56;5082585;28;20232;-75
2022/08/23 05:31:47;;;;;;;3.43;2.97;;;;;;;15.91;100.00;96215.56;5073690;28;20210;-77
2022/08/23 05:34:17;;;;;;;5.67;4.03;;;;;;;15.92;100.00;96219.91;5075060;28;20209;-77
2022/08/23 05:36:48;;;;;;;4.17;3.07;;;;;;;15.91;100.00;96218.28;5079661;28;20202;-78
2022/08/23 05:39:16;;;;;;;3.70;3.30;;;;;;;15.94;100.00;96217.75;5081263;28;20208;-78
2022/08/23 05:41:45;;;;;;;6.10;3.50;;;;;;;16.05;100.00;96233.88;5076767;28;20204;-78
2022/08/23 05:44:13;;;;;;;3.10;2.80;;;;;;;16.10;100.00;96233.88;5077710;28;20617;-79
2022/08/23 05:46:44;;;;;;;5.13;3.23;;;;;;;16.16;100.00;96232.78;5069417;28;20243;-78
2022/08/23 05:49:26;;;;;;;4.60;3.33;;;;;;;16.24;100.00;96247.81;5073970;28;20251;-79
2022/08/23 05:51:54;;;;;;;3.93;3.27;;;;;;;16.13;100.00;96241.50;5068951;28;20196;-78
2022/08/23 05:54:24;;;;;;;4.00;3.60;;;;;;;16.08;100.00;96237.94;5072316;28;20278;-79
2022/08/23 05:57:10;;;;;;;4.33;3.47;;;;;;;15.97;100.00;96239.00;5070312;28;20228;-78
2022/08/23 05:59:38;;;;;;;3.93;3.40;;;;;;;15.90;100.00;96233.81;5075261;28;20255;-77
2022/08/23 06:02:07;;;;;;;4.97;3.70;;;;;;;15.81;100.00;96235.41;5080487;28;20344;-77
2022/08/23 06:04:35;;;;;;;3.77;3.10;;;;;;;15.82;100.00;96246.00;5085734;28;20213;-78
2022/08/23 06:07:04;;;;;;;3.60;3.30;;;;;;;15.83;100.00;96238.66;5075702;28;20212;-78
2022/08/23 06:09:31;;;;;;;13.47;7.00;;;;;;;15.79;100.00;96243.84;5080155;28;20224;-78
2022/08/23 06:11:58;;;;;;;6.47;4.13;;;;;;;15.80;100.00;96240.03;5074026;28;20209;-78
2022/08/23 06:14:26;;;;;;;6.20;3.03;;;;;;;15.75;100.00;96240.00;5072291;28;20257;-78
2022/08/23 06:16:53;;;;;;;3.73;3.10;;;;;;;15.73;100.00;96234.03;5068980;28;20251;-78
2022/08/23 06:19:23;;;;;;;3.83;3.27;;;;;;;15.73;100.00;96239.47;5073341;28;20208;-76
2022/08/23 06:22:11;;;;;;;3.80;3.30;;;;;;;15.77;100.00;96239.72;5069878;28;20197;-79
2022/08/23 06:24:41;;;;;;;4.43;2.97;;;;;;;15.75;100.00;96241.91;5073364;28;20201;-78
2022/08/23 06:27:17;;;;;;;4.80;3.17;;;;;;;15.81;100.00;96249.84;5086266;28;20209;-78
2022/08/23 06:29:45;;;;;;;5.63;3.37;;;;;;;15.83;100.00;96244.09;5071458;28;20231;-76
2022/08/23 06:32:31;;;;;;;7.80;3.93;;;;;;;15.85;100.00;96259.09;5070843;28;20212;-78
2022/08/23 06:35:27;;;;;;;5.47;3.90;;;;;;;15.83;100.00;96258.53;5035610;28;20275;-78
2022/08/23 06:38:21;;;;;;;7.37;3.80;;;;;;;15.88;100.00;96258.59;5076244;28;20213;-79
2022/08/23 06:41:02;;;;;;;4.37;3.20;;;;;;;15.86;100.00;96262.66;5074631;28;20201;-78
2022/08/23 06:43:41;;;;;;;5.53;3.50;;;;;;;15.88;100.00;96261.31;5071023;28;20333;-78
2022/08/23 06:46:22;;;;;;;5.10;3.50;;;;;;;15.91;100.00;96276.28;5085972;28;20228;-79
2022/08/23 06:48:50;;;;;;;6.00;4.17;;;;;;;15.93;100.00;96270.56;5075036;28;20193;-78
2022/08/23 06:51:23;;;;;;;3.60;3.07;;;;;;;15.94;100.00;96277.66;5069909;28;20233;-78
2022/08/23 06:53:57;;;;;;;5.73;3.50;;;;;;;15.98;100.00;96268.69;5084446;28;20246;-78
2022/08/23 06:56:44;;;;;;;4.43;3.60;;;;;;;15.99;100.00;96274.97;5073003;28;20560;-78
2022/08/23 06:59:19;;;;;;;4.80;3.33;;;;;;;15.93;100.00;96282.28;5076221;28;20295;-79
2022/08/23 07:01:54;;;;;;;5.67;3.70;;;;;;;15.92;100.00;96269.75;5072847;28;20304;-78
2022/08/23 07:04:44;;;;;;;4.47;3.60;;;;;;;15.95;100.00;96280.13;5072982;28;20224;-76
2022/08/23 07:07:29;;;;;;;4.00;3.17;;;;;;;15.93;100.00;96270.56;5086917;28;20196;-77
2022/08/23 07:09:58;;;;;;;3.67;2.93;;;;;;;15.86;100.00;96270.81;5070108;28;20228;-76
2022/08/23 07:12:25;;;;;;;3.50;3.10;;;;;;;15.83;100.00;96265.88;5078051;28;20205;-78
2022/08/23 07:14:52;;;;;;;4.43;2.90;;;;;;;15.86;100.00;96277.09;5070674;28;20193;-79
2022/08/23 07:17:19;;;;;;;3.20;2.90;;;;;;;15.93;100.00;96276.00;5069105;28;20197;-77
2022/08/23 07:19:47;;;;;;;3.10;2.80;;;;;;;15.94;100.00;96278.47;5082526;28;20205;-78
2022/08/23 07:22:14;;;;;;;6.03;2.90;;;;;;;15.99;100.00;96280.41;5073427;28;20209;-78
2022/08/23 07:24:42;;;;;;;5.70;3.07;;;;;;;16.05;100.00;96291.06;5085660;28;20209;-77
2022/08/23 07:27:11;;;;;;;5.37;4.70;;;;;;;16.10;100.00;96292.97;5068637;28;20205;-78
2022/08/23 07:29:47;;;;;;;3.87;2.97;;;;;;;16.11;100.00;96289.16;5085465;28;20217;-76
2022/08/23 07:32:14;;;;;;;4.90;3.10;;;;;;;16.07;100.00;96296.25;5067814;28;20266;-78
2022/08/23 07:34:41;;;;;;;4.30;3.63;;;;;;;16.08;100.00;96297.84;5074328;28;20236;-78
2022/08/23 07:37:08;;;;;;;4.60;3.20;;;;;;;16.11;100.00;96294.59;5087905;28;20232;-79
2022/08/23 07:39:35;;;;;;;3.30;3.00;;;;;;;16.14;100.00;96299.53;5070684;28;20204;-76
2022/08/23 07:42:04;;;;;;;4.13;3.00;;;;;;;16.15;100.00;96284.84;5088384;28;20336;-79
2022/08/23 07:44:33;;;;;;;3.80;2.73;;;;;;;16.14;100.00;96294.09;5071145;28;20197;-79
2022/08/23 07:47:01;;;;;;;4.43;3.93;;;;;;;16.15;100.00;96290.28;5089278;28;20213;-79
2022/08/23 07:49:29;;;;;;;5.00;3.10;;;;;;;16.25;100.00;96293.03;5070598;28;20307;-78
2022/08/23 07:51:58;;;;;;;6.07;3.23;;;;;;;16.32;100.00;96290.06;5070314;28;20204;-78
2022/08/23 07:54:27;;;;;;;3.93;3.00;;;;;;;16.52;100.00;96299.09;5076440;28;20216;-79
2022/08/23 07:57:14;;;;;;;4.33;3.30;;;;;;;16.96;100.00;96295.94;5071412;28;20256;-79
2022/08/23 07:59:55;;;;;;;3.87;2.90;;;;;;;17.34;100.00;96295.41;5086206;28;20201;-79
2022/08/23 08:02:39;;;;;;;3.20;2.90;;;;;;;17.78;100.00;96290.16;5071382;28;20221;-78
2022/08/23 08:05:13;;;;;;;3.17;2.77;;;;;;;18.19;100.00;96291.94;5075031;28;20209;-76
2022/08/23 08:07:41;;;;;;;3.63;2.80;;;;;;;18.51;100.00;96298.63;5090617;28;20208;-77
2022/08/23 08:10:09;;;;;;;4.07;2.90;;;;;;;18.73;100.00;96300.16;5081540;28;20213;-78
2022/08/23 08:12:36;;;;;;;4.67;3.30;;;;;;;18.98;100.00;96299.16;5081209;28;20204;-78
2022/08/23 08:15:13;;;;;;;3.20;2.90;;;;;;;19.30;100.00;96310.44;5081310;28;20242;-79
2022/08/23 08:17:41;;;;;;;6.13;2.70;;;;;;;19.32;98.32;96307.38;5082084;28;20202;-78
2022/08/23 08:20:35;;;;;;;3.15;2.83;;;;;;;19.56;98.39;96305.59;5075824;28;20232;-78
2022/08/23 08:23:38;;;;;;;4.07;2.97;;;;;;;19.93;94.26;96307.66;5071834;28;20208;-78
2022/08/23 08:26:26;;;;;;;3.63;3.22;;;;;;;20.16;90.21;96309.56;5037693;28;20255;-78
2022/08/23 08:28:57;;;;;;;3.92;3.28;;;;;;;20.42;89.78;96301.06;5076216;28;20211;-78
2022/08/23 08:31:27;;;;;;;3.22;2.72;;;;;;;20.52;88.20;96314.66;5087270;28;20223;-78
2022/08/23 08:33:55;;;;;;;3.28;2.97;;;;;;;20.58;87.84;96308.03;5082610;28;20304;-77
2022/08/23 08:36:35;;;;;;;3.03;2.70;;;;;;;20.78;89.53;96314.03;5084038;28;20201;-78
2022/08/23 08:39:05;;;;;;;3.45;2.88;;;;;;;20.99;84.34;96311.00;5079501;28;20280;-78
2022/08/23 08:42:02;;;;;;;5.25;2.70;;;;;;;21.31;85.30;96307.50;5081741;28;20201;-78
2022/08/23 08:44:37;;;;;;;2.80;2.60;;;;;;;21.68;82.82;96318.44;5076274;28;20291;-77
2022/08/23 08:47:14;;;;;;;3.05;2.60;;;;;;;21.79;83.86;96308.88;5082264;28;20200;-78
2022/08/23 08:49:48;;;;;;;4.65;3.20;;;;;;;22.04;82.70;96312.28;5068047;28;20248;-78
2022/08/23 08:52:20;;;;;;;5.63;3.22;;;;;;;22.11;76.79;96308.03;5092037;28;20241;-78
2022/08/23 08:54:50;;;;;;;3.60;3.00;;;;;;;22.49;75.61;96307.81;5081002;28;20208;-78
2022/08/23 08:57:20;;;;;;;5.93;3.35;;;;;;;22.55;73.24;96309.31;5075621;28;20275;-78
2022/08/23 08:59:55;;;;;;;4.97;3.08;;;;;;;22.81;71.76;96306.88;5069971;28;20209;-77
2022/08/23 09:02:28;;;;;;;4.57;3.08;;;;;;;23.00;72.40;96313.88;5081305;28;20296;-78
2022/08/23 09:04:57;;;;;;;10.27;3.20;;;;;;;23.16;68.88;96305.25;5077024;28;20203;-78
2022/08/23 09:07:30;;;;;;;6.25;3.40;;;;;;;23.34;68.51;96315.28;5081321;28;20240;-78
2022/08/23 09:10:35;;;;;;;6.03;3.10;;;;;;;23.34;72.77;96316.09;5076335;28;20234;-78
2022/08/23 09:13:35;;;;;;;5.05;3.00;;;;;;;23.34;69.77;96310.59;5078720;28;20255;-77
2022/08/23 09:16:13;;;;;;;3.78;3.20;;;;;;;23.54;67.81;96312.06;5077429;28;20229;-78
2022/08/23 09:18:42;;;;;;;5.03;3.30;;;;;;;23.58;69.17;96309.50;5067869;28;20248;-77
2022/08/23 09:21:10;;;;;;;5.53;3.17;;;;;;;23.71;70.37;96309.44;5081046;28;20247;-77
2022/08/23 09:23:42;;;;;;;7.72;3.33;;;;;;;23.75;66.73;96309.59;5067246;28;20205;-77
2022/08/23 09:26:20;;;;;;;4.90;2.85;;;;;;;23.73;65.06;96309.13;5067140;28;20198;-77
2022/08/23 09:28:51;;;;;;;4.15;3.00;;;;;;;23.79;63.76;96302.34;5070765;28;20288;-77
2022/08/23 09:31:37;;;;;;;4.43;2.85;;;;;;;23.93;65.46;96299.47;5081867;28;20232;-76
2022/08/23 09:34:06;;;;;;;3.65;2.90;;;;;;;23.73;67.17;96306.38;5075898;28;20208;-76
2022/08/23 09:36:43;;;;;;;5.45;3.28;;;;;;;23.65;65.55;96294.13;5071545;28;20204;-77
2022/08/23 09:39:25;;;;;;;3.53;2.80;;;;;;;23.81;64.21;96294.56;5079628;28;20271;-77
2022/08/23 09:41:53;;;;;;;4.15;3.22;;;;;;;24.01;62.41;96296.75;5085815;28;20215;-76
2022/08/23 09:44:33;;;;;;;3.85;3.05;;;;;;;24.09;63.42;96292.41;5086021;28;20205;-76
2022/08/23 09:47:10;;;;;;;3.83;3.00;;;;;;;24.22;63.37;96290.72;5087834;28;20208;-76
2022/08/23 09:49:44;;;;;;;4.78;3.17;;;;;;;24.27;60.83;96288.63;5088707;28;20266;-76
2022/08/23 09:52:21;;;;;;;3.08;2.78;;;;;;;24.40;60.46;96286.91;5083785;28;20206;-77
2022/08/23 09:54:56;;;;;;;3.22;2.50;;;;;;;24.51;59.80;96285.44;5076248;28;20210;-77
2022/08/23 09:57:27;;;;;;;3.17;2.78;;;;;;;24.61;60.80;96282.41;5079897;28;20248;-76
2022/08/23 09:59:56;;;;;;;4.80;2.90;;;;;;;24.75;60.23;96279.53;5076638;28;20209;-77
2022/08/23 10:02:32;;;;;;;3.20;2.90;;;;;;;24.87;60.89;96280.50;5077631;28;20227;-78
2022/08/23 10:05:19;;;;;;;4.75;3.17;;;;;;;24.85;60.29;96274.47;5082831;28;20200;-77
2022/08/23 10:07:54;;;;;;;4.93;2.75;;;;;;;24.73;60.33;96271.56;5087524;28;20294;-78
2022/08/23 10:10:28;;;;;;;3.60;3.30;;;;;;;24.77;60.40;96268.94;5092666;28;20247;-77
2022/08/23 10:13:00;;;;;;;5.32;3.42;;;;;;;25.08;62.78;96268.84;5080287;28;20292;-77
2022/08/23 10:15:40;;;;;;;6.07;3.30;;;;;;;25.35;60.50;96262.97;5086950;28;20225;-78
2022/08/23 10:18:14;;;;;;;3.58;3.20;;;;;;;25.40;61.28;96265.59;5081014;28;20212;-77
2022/08/23 10:20:54;;;;;;;3.45;3.03;;;;;;;25.32;61.03;96252.59;5082126;28;20216;-78
2022/08/23 10:23:36;;;;;;;5.28;3.20;;;;;;;25.18;62.10;96254.69;5089526;27;20209;-77
2022/08/23 10:26:03;;;;;;;4.30;3.40;;;;;;;25.23;62.27;96243.50;5104305;28;20208;-77
2022/08/23 10:31:50;;;;;;;5.75;3.40;;;;;;;25.50;61.38;96237.59;5066919;28;20314;-78
2022/08/23 10:34:30;;;;;;;3.70;3.25;;;;;;;25.58;60.93;96245.06;5078157;28;20308;-78
2022/08/23 10:37:14;;;;;;;4.03;3.10;;;;;;;25.65;59.93;96232.72;5080781;28;20201;-76
2022/08/23 10:39:48;;;;;;;4.45;3.63;;;;;;;25.69;59.41;96239.22;5075166;28;20209;-76
2022/08/23 10:42:27;;;;;;;3.30;3.00;;;;;;;25.85;60.17;96234.78;5075561;28;20262;-77
2022/08/23 10:45:03;;;;;;;3.88;3.22;;;;;;;26.05;58.27;96222.97;5084423;28;20205;-77
2022/08/23 10:47:37;;;;;;;5.20;2.97;;;;;;;26.28;57.36;96216.06;5084902;28;20312;-77
2022/08/23 10:50:09;;;;;;;6.85;3.38;;;;;;;26.42;54.35;96215.00;5082080;28;20245;-77
2022/08/23 10:52:46;;;;;;;3.65;3.20;;;;;;;26.52;54.94;96220.97;5079974;28;20205;-76
2022/08/23 10:55:34;;;;;;;3.30;3.00;;;;;;;26.56;55.12;96221.09;5080226;28;20228;-77
2022/08/23 10:58:04;;;;;;;3.40;3.00;;;;;;;26.57;53.65;96211.63;5078799;28;20216;-75
2022/08/23 11:00:33;;;;;;;5.63;3.58;;;;;;;26.76;55.07;96212.00;5081670;28;20209;-76
2022/08/23 11:03:09;;;;;;;3.58;3.28;;;;;;;26.81;54.00;96202.66;5076264;28;20199;-76
2022/08/23 11:05:39;;;;;;;3.40;3.10;;;;;;;26.87;53.24;96206.88;5085125;28;20240;-75
2022/08/23 11:08:35;;;;;;;5.45;3.20;;;;;;;26.99;53.37;96199.44;5084084;28;20200;-76
2022/08/23 11:11:38;;;;;;;4.53;3.10;;;;;;;26.99;52.63;96193.09;5080814;28;20559;-77
2022/08/23 11:14:09;;;;;;;3.10;2.90;;;;;;;27.11;52.45;96193.97;5080204;28;20208;-75
2022/08/23 11:16:40;;;;;;;3.88;2.90;;;;;;;27.25;50.95;96190.09;5076111;28;20249;-76
2022/08/23 11:19:14;;;;;;;4.10;3.03;;;;;;;27.34;50.53;96194.41;5085631;28;20243;-75
2022/08/23 11:21:47;;;;;;;3.35;3.05;;;;;;;27.45;50.36;96192.81;5086230;28;20306;-75
2022/08/23 11:24:49;;;;;;;4.45;2.90;;;;;;;27.53;50.66;96195.84;5085196;28;20212;-76
2022/08/23 11:27:39;;;;;;;3.88;3.10;;;;;;;27.60;50.28;96188.59;5074291;28;20204;-76
2022/08/23 11:30:53;;;;;;;3.58;3.10;;;;;;;27.51;51.01;96196.19;5071229;28;20274;-75
2022/08/23 11:33:36;;;;;;;3.83;3.28;;;;;;;27.55;50.38;96183.28;5045196;28;20210;-75
2022/08/23 11:36:20;;;;;;;3.15;2.85;;;;;;;27.56;51.12;96176.56;5090975;28;20201;-74
2022/08/23 11:39:12;;;;;;;4.55;2.97;;;;;;;27.71;51.53;96178.69;5084093;28;20234;-75
2022/08/23 11:42:06;;;;;;;3.13;2.72;;;;;;;27.83;49.22;96183.44;5085284;28;20261;-75
2022/08/23 11:44:39;;;;;;;3.30;2.80;;;;;;;27.85;50.11;96192.22;5075724;28;20197;-76
2022/08/23 11:47:11;;;;;;;3.65;2.90;;;;;;;27.84;46.69;96180.31;5081053;28;20260;-76
2022/08/23 11:50:02;;;;;;;5.40;3.10;;;;;;;27.85;48.64;96178.38;5079207;28;20206;-75
2022/08/23 11:53:08;;;;;;;3.17;2.88;;;;;;;27.79;46.65;96179.75;5082982;28;20252;-75
2022/08/23 11:56:00;;;;;;;5.65;3.00;;;;;;;27.80;48.59;96179.41;5077597;28;20217;-75
2022/08/23 11:58:45;;;;;;;5.40;2.80;;;;;;;27.91;46.70;96173.38;5070375;28;20198;-76
2022/08/23 12:01:14;;;;;;;6.65;2.70;;;;;;;27.98;45.82;96173.66;5077510;28;20207;-75
2022/08/23 12:03:57;;;;;;;3.58;3.03;;;;;;;27.88;43.53;96174.09;5083292;28;20208;-75